Current Weather Conditions: station 63114

sailwx.info

Wind from 260 at 25 knots

Air temperature 5.4° C
Visibility: greater than 10.8 NM
Dewpoint -1.4° C

Last reported at 2015-Apr-26 14:00 UTC.
Time now 2015-Apr-26 17:19 UTC

Location: N 61°18' E 001°42'.
View on Google Maps.

See reports from other nearby stations

  
Tides and Currents Weather Stations Pressure Air Temp Water Temp Dewpoint Dewpoint Depression Visibility Wind Speed Wind Dir Waves Ship Positions
date/time (UTC)wind fromknots sea level pressurealtimeterstation pressurevisibilityair tempwater tempwave heightnotes
2015-Apr-26 14:00 260 25 10.8 5.4
2015-Apr-26 12:00 270 24 10.8 5.3
2015-Apr-26 09:00 280 24 10.8 4.6
2015-Apr-26 04:00 290 17 10.8 5.1
2015-Apr-26 02:00 290 11 27.0 5.2
2015-Apr-25 23:00 320 12 27.0 4.8
2015-Apr-25 21:00 350 12 27.0 3.8
2015-Apr-25 16:00 360 9 27.0 4.9
2015-Apr-25 15:00 040 10 27.0 5.1
2015-Apr-25 13:00 040 13 27.0 4.4
2015-Apr-25 10:00 050 9 27.0 4.4
2015-Apr-25 09:00 070 9 27.0 4.4
2015-Apr-25 08:00 080 10 27.0 4.5
2015-Apr-25 06:00 100 10 27.0 4.0
2015-Apr-25 04:00 10.8 4.5
2015-Apr-25 01:00 240 5 27.0 4.5
2015-Apr-25 00:00 200 6 27.0 4.2
2015-Apr-24 23:00 220 7 27.0 4.2
2015-Apr-24 22:00 220 6 27.0 4.1
2015-Apr-24 21:00 230 6 27.0 3.8